createdAt,value
2019-04-04T00:01:28.316Z,19.52
2019-04-04T00:03:56.778Z,19.90
2019-04-04T00:06:27.024Z,18.48
2019-04-04T00:08:55.412Z,19.67
2019-04-04T00:11:23.858Z,18.82
2019-04-04T00:13:52.327Z,20.43
2019-04-04T00:16:20.772Z,20.32
2019-04-04T00:18:49.223Z,19.62
2019-04-04T00:21:17.707Z,20.32
2019-04-04T00:23:46.149Z,19.52
2019-04-04T00:26:14.591Z,19.85
2019-04-04T00:28:44.086Z,19.55
2019-04-04T00:31:13.240Z,20.30
2019-04-04T00:33:41.691Z,20.65
2019-04-04T00:36:10.152Z,20.95
2019-04-04T00:38:38.694Z,20.40
2019-04-04T00:41:07.255Z,21.93
2019-04-04T00:43:35.788Z,22.27
2019-04-04T00:46:04.296Z,22.50
2019-04-04T00:48:34.277Z,21.93
2019-04-04T00:51:02.949Z,23.83
2019-04-04T00:53:31.396Z,23.45
2019-04-04T00:55:59.842Z,22.58
2019-04-04T00:58:28.319Z,21.97
2019-04-04T01:00:56.767Z,20.08
2019-04-04T01:03:25.211Z,19.75
2019-04-04T01:05:53.687Z,20.65
2019-04-04T01:08:22.208Z,21.15
2019-04-04T01:10:50.652Z,20.82
2019-04-04T01:13:19.127Z,19.12
2019-04-04T01:15:47.560Z,19.23
2019-04-04T01:18:16.071Z,19.95
2019-04-04T01:20:44.540Z,20.48
2019-04-04T01:23:12.983Z,19.12
2019-04-04T01:25:41.431Z,18.37
2019-04-04T01:28:09.897Z,18.30
2019-04-04T01:30:38.342Z,17.62
2019-04-04T01:33:06.860Z,18.17
2019-04-04T01:35:36.113Z,18.10
2019-04-04T01:38:04.691Z,17.57
2019-04-04T01:40:33.818Z,18.37
2019-04-04T01:43:02.396Z,17.40
2019-04-04T01:45:30.835Z,17.80
2019-04-04T01:47:59.345Z,17.07
2019-04-04T01:50:27.814Z,17.80
2019-04-04T01:52:59.012Z,17.10
2019-04-04T01:55:26.417Z,16.70
2019-04-04T01:57:54.887Z,17.42
2019-04-04T02:00:23.329Z,17.00
2019-04-04T02:02:52.343Z,17.62
2019-04-04T02:05:20.911Z,16.50
2019-04-04T02:07:49.361Z,17.82
2019-04-04T02:10:17.869Z,16.40
2019-04-04T02:12:46.339Z,16.60
2019-04-04T02:15:15.031Z,15.88
2019-04-04T02:17:43.640Z,14.93
2019-04-04T02:20:12.176Z,15.23
2019-04-04T02:22:40.620Z,15.48
2019-04-04T02:25:09.249Z,15.98
2019-04-04T02:27:38.359Z,16.15
2019-04-04T02:30:08.742Z,17.27
2019-04-04T02:32:37.255Z,15.28
2019-04-04T02:35:10.148Z,15.18
2019-04-04T02:37:37.329Z,16.77
2019-04-04T02:40:10.080Z,16.97
2019-04-04T02:42:39.020Z,18.05
2019-04-04T02:45:08.387Z,17.20
2019-04-04T02:47:36.897Z,16.32
2019-04-04T02:50:07.105Z,16.23
2019-04-04T02:52:35.748Z,17.35
2019-04-04T02:55:05.045Z,16.57
2019-04-04T02:57:33.596Z,15.75
2019-04-04T03:00:02.111Z,15.03
2019-04-04T03:02:30.639Z,15.48
2019-04-04T03:04:59.189Z,14.83
2019-04-04T03:07:30.915Z,14.20
2019-04-04T03:09:58.184Z,14.38
2019-04-04T03:12:26.999Z,13.43
2019-04-04T03:14:55.644Z,13.32
2019-04-04T03:17:24.156Z,14.15
2019-04-04T03:19:52.624Z,13.45
2019-04-04T03:22:21.067Z,12.73
2019-04-04T03:24:49.503Z,13.18
2019-04-04T03:27:18.272Z,13.60
2019-04-04T03:29:46.780Z,11.93
2019-04-04T03:32:16.617Z,12.88
2019-04-04T03:34:49.887Z,13.10
2019-04-04T03:37:15.581Z,12.20
2019-04-04T03:39:44.020Z,13.10
2019-04-04T03:42:12.485Z,12.30
2019-04-04T03:44:40.924Z,13.08
2019-04-04T03:47:10.453Z,11.30
2019-04-04T03:49:39.547Z,11.20
2019-04-04T03:52:11.322Z,11.03
2019-04-04T03:54:38.153Z,11.17
2019-04-04T03:57:10.949Z,10.50
2019-04-04T03:59:36.800Z,11.53
2019-04-04T04:02:05.303Z,11.93
2019-04-04T04:04:33.773Z,11.12
2019-04-04T04:07:02.208Z,10.30
2019-04-04T04:09:30.725Z,11.15
2019-04-04T04:11:59.187Z,11.28
2019-04-04T04:14:27.630Z,11.12
2019-04-04T04:16:56.086Z,10.65
2019-04-04T04:19:29.333Z,11.00
2019-04-04T04:21:54.775Z,11.10
2019-04-04T04:24:23.216Z,10.43
2019-04-04T04:26:51.693Z,10.93
2019-04-04T04:29:20.128Z,10.23
2019-04-04T04:31:49.474Z,10.58
2019-04-04T04:34:18.014Z,10.75
2019-04-04T04:36:48.058Z,10.03
2019-04-04T04:39:16.646Z,10.70
2019-04-04T04:41:46.148Z,9.73
2019-04-04T04:44:14.656Z,9.30
2019-04-04T04:46:43.094Z,8.83
2019-04-04T04:49:11.631Z,9.28
2019-04-04T04:51:43.115Z,10.93
2019-04-04T04:54:10.229Z,9.03
2019-04-04T04:56:38.689Z,8.80
2019-04-04T04:59:07.119Z,8.75
2019-04-04T05:01:35.640Z,8.68
2019-04-04T05:04:04.192Z,9.35
2019-04-04T05:06:35.371Z,8.65
2019-04-04T05:09:03.868Z,8.87
2019-04-04T05:11:32.331Z,9.50
2019-04-04T05:14:00.773Z,8.68
2019-04-04T05:16:29.215Z,9.23
2019-04-04T05:18:57.675Z,9.20
2019-04-04T05:21:28.750Z,8.93
2019-04-04T05:23:56.283Z,9.07
2019-04-04T05:26:24.746Z,9.18
2019-04-04T05:28:53.185Z,9.33
2019-04-04T05:31:21.625Z,9.43
2019-04-04T05:33:50.094Z,9.48
2019-04-04T05:36:18.534Z,9.13
2019-04-04T05:38:47.360Z,10.18
2019-04-04T05:41:16.651Z,10.90
2019-04-04T05:43:45.395Z,10.28
2019-04-04T05:46:13.887Z,9.60
2019-04-04T05:48:42.358Z,8.90
2019-04-04T05:51:10.811Z,8.90
2019-04-04T05:53:39.319Z,9.75
2019-04-04T05:56:07.945Z,11.90
2019-04-04T05:58:36.468Z,10.03
2019-04-04T06:01:06.668Z,8.53
2019-04-04T06:03:35.172Z,9.55
2019-04-04T06:06:03.746Z,8.30
2019-04-04T06:08:32.268Z,8.23
2019-04-04T06:11:00.807Z,8.18
2019-04-04T06:13:29.247Z,8.13
2019-04-04T06:15:57.697Z,8.45
2019-04-04T06:18:26.168Z,8.08
2019-04-04T06:20:54.682Z,8.15
2019-04-04T06:23:25.113Z,8.68
2019-04-04T06:25:53.326Z,8.40
2019-04-04T06:28:21.752Z,9.68
2019-04-04T06:30:53.640Z,11.90
2019-04-04T06:33:20.384Z,11.00
2019-04-04T06:35:48.824Z,13.68
2019-04-04T06:38:17.260Z,11.00
2019-04-04T06:40:45.731Z,10.80
2019-04-04T06:43:14.172Z,9.78
2019-04-04T06:45:46.137Z,11.43
2019-04-04T06:51:40.740Z,9.88
2019-04-04T06:54:09.173Z,8.20
2019-04-04T06:56:37.617Z,8.13
2019-04-04T06:59:06.071Z,7.72
2019-04-04T07:01:34.507Z,8.43
2019-04-04T07:04:02.952Z,7.50
2019-04-04T07:06:31.418Z,8.68
2019-04-04T07:08:59.853Z,8.15
2019-04-04T07:11:28.349Z,8.40
2019-04-04T07:13:57.029Z,7.80
2019-04-04T07:16:26.995Z,7.63
2019-04-04T07:18:55.432Z,6.58
2019-04-04T07:21:23.887Z,6.80
2019-04-04T07:23:52.324Z,7.00
2019-04-04T07:26:20.774Z,6.33
2019-04-04T07:28:51.981Z,5.80
2019-04-04T07:31:19.399Z,6.70
2019-04-04T07:33:47.836Z,6.30
2019-04-04T07:36:18.165Z,5.15
2019-04-04T07:38:46.451Z,5.90
2019-04-04T07:41:14.987Z,5.80
2019-04-04T07:43:43.418Z,5.78
2019-04-04T07:46:16.803Z,5.55
2019-04-04T07:48:42.024Z,5.22
2019-04-04T07:51:10.491Z,4.55
2019-04-04T07:53:38.930Z,4.67
2019-04-04T07:56:07.368Z,4.83
2019-04-04T07:58:35.830Z,5.12
2019-04-04T08:01:04.349Z,5.33
2019-04-04T08:03:32.781Z,4.03
2019-04-04T08:06:01.255Z,3.62
2019-04-04T08:08:29.683Z,3.40
2019-04-04T08:10:58.193Z,3.95
2019-04-04T08:13:26.643Z,3.08
2019-04-04T08:15:55.098Z,3.35
2019-04-04T08:18:23.732Z,3.22
2019-04-04T08:20:52.183Z,2.50
2019-04-04T08:23:20.632Z,2.10
2019-04-04T08:25:49.075Z,2.08
2019-04-04T08:28:17.531Z,1.82
2019-04-04T08:30:45.970Z,2.50
2019-04-04T08:33:14.434Z,2.22
2019-04-04T08:35:42.895Z,2.22
2019-04-04T08:38:11.324Z,2.50
2019-04-04T08:40:39.763Z,2.55
2019-04-04T08:43:08.213Z,2.35
2019-04-04T08:45:36.719Z,2.22
2019-04-04T08:48:05.301Z,2.45
2019-04-04T08:50:33.769Z,2.77
2019-04-04T08:53:02.209Z,2.62
2019-04-04T08:55:30.649Z,2.50
2019-04-04T08:57:59.107Z,2.27
2019-04-04T09:00:27.612Z,2.40
2019-04-04T09:02:56.047Z,2.20
2019-04-04T09:05:24.503Z,2.40
2019-04-04T09:07:52.936Z,2.35
2019-04-04T09:10:21.368Z,2.30
2019-04-04T09:12:49.834Z,2.65
2019-04-04T09:15:18.405Z,2.50
2019-04-04T09:17:46.916Z,2.30
2019-04-04T09:20:15.624Z,2.15
2019-04-04T09:22:44.060Z,2.20
2019-04-04T09:25:12.751Z,2.62
2019-04-04T09:27:41.355Z,2.22
2019-04-04T09:30:10.541Z,2.62
2019-04-04T09:32:39.038Z,2.65
2019-04-04T09:35:08.148Z,3.35
2019-04-04T09:37:36.584Z,2.12
2019-04-04T09:40:07.948Z,2.90
2019-04-04T09:42:36.491Z,2.50
2019-04-04T09:45:07.548Z,2.30
2019-04-04T09:47:36.165Z,1.85
2019-04-04T09:50:06.398Z,1.85
2019-04-04T09:52:34.843Z,2.30
2019-04-04T09:55:08.662Z,1.87
2019-04-04T09:57:37.260Z,1.87
2019-04-04T10:00:08.952Z,1.90
2019-04-04T10:02:37.396Z,1.87
2019-04-04T10:05:07.598Z,1.55
2019-04-04T10:07:36.204Z,1.95
2019-04-04T10:10:07.017Z,1.70
2019-04-04T10:12:35.580Z,1.60
2019-04-04T10:15:05.120Z,2.10
2019-04-04T10:17:33.564Z,1.92
2019-04-04T10:20:02.162Z,1.92
2019-04-04T10:22:30.675Z,2.12
2019-04-04T10:24:59.181Z,1.65
2019-04-04T10:27:27.716Z,2.08
2019-04-04T10:29:56.160Z,1.87
2019-04-04T10:32:24.592Z,1.60
2019-04-04T10:34:53.061Z,2.58
2019-04-04T10:37:21.491Z,1.32
2019-04-04T10:39:49.924Z,1.50
2019-04-04T10:42:18.403Z,1.70
2019-04-04T10:44:46.844Z,1.15
2019-04-04T10:47:15.361Z,1.37
2019-04-04T10:49:43.979Z,1.30
2019-04-04T10:52:12.480Z,1.20
2019-04-04T10:54:40.919Z,1.52
2019-04-04T10:57:09.395Z,1.40
2019-04-04T10:59:37.824Z,1.25
2019-04-04T11:02:06.355Z,1.42
2019-04-04T11:04:34.831Z,1.30
2019-04-04T11:07:03.335Z,1.10
2019-04-04T11:09:41.324Z,1.35
2019-04-04T11:12:01.963Z,1.22
2019-04-04T11:14:30.400Z,1.30
2019-04-04T11:16:58.843Z,1.07
2019-04-04T11:19:31.365Z,1.10
2019-04-04T11:21:57.468Z,1.52
2019-04-04T11:24:25.906Z,1.10
2019-04-04T11:26:54.443Z,1.22
2019-04-04T11:29:22.962Z,1.25
2019-04-04T11:31:51.399Z,1.35
2019-04-04T11:34:19.932Z,1.30
2019-04-04T11:36:48.375Z,1.50
2019-04-04T11:39:16.870Z,1.47
2019-04-04T11:41:45.384Z,1.10
2019-04-04T11:44:13.823Z,1.47
2019-04-04T11:46:42.263Z,1.50
2019-04-04T11:49:10.736Z,1.40
2019-04-04T11:51:39.186Z,1.42
2019-04-04T11:54:07.627Z,1.40
2019-04-04T11:56:36.096Z,1.37
2019-04-04T11:59:04.608Z,1.50
2019-04-04T12:01:34.684Z,1.40
2019-04-04T12:04:03.371Z,1.20
2019-04-04T12:06:31.821Z,1.98
2019-04-04T12:09:00.262Z,1.00
2019-04-04T12:11:28.731Z,1.45
2019-04-04T12:13:57.176Z,1.47
2019-04-04T12:16:25.616Z,1.47
2019-04-04T12:18:54.088Z,1.60
2019-04-04T12:21:22.534Z,1.80
2019-04-04T12:23:51.500Z,1.50
2019-04-04T12:26:20.288Z,1.50
2019-04-04T12:28:48.742Z,1.70
2019-04-04T12:31:17.180Z,1.57
2019-04-04T12:33:45.671Z,2.00
2019-04-04T12:36:24.119Z,1.90
2019-04-04T12:38:44.265Z,1.70
2019-04-04T12:41:12.737Z,1.75
2019-04-04T12:43:41.176Z,1.60
2019-04-04T12:46:09.619Z,2.12
2019-04-04T12:48:38.096Z,1.90
2019-04-04T12:51:06.605Z,1.60
2019-04-04T12:53:35.052Z,1.62
2019-04-04T12:56:03.578Z,2.10
2019-04-04T12:58:32.028Z,1.60
2019-04-04T13:01:00.460Z,1.82
2019-04-04T13:03:28.922Z,1.98
2019-04-04T13:05:57.348Z,2.00
2019-04-04T13:08:25.789Z,2.00
2019-04-04T13:10:54.243Z,1.82
2019-04-04T13:13:22.672Z,1.95
2019-04-04T13:15:51.108Z,1.90
2019-04-04T13:18:19.611Z,1.87
2019-04-04T13:20:48.083Z,1.95
2019-04-04T13:23:16.524Z,1.87
2019-04-04T13:25:44.972Z,1.60
2019-04-04T13:28:13.412Z,1.98
2019-04-04T13:30:41.852Z,1.85
2019-04-04T13:33:10.304Z,1.75
2019-04-04T13:35:38.736Z,1.47
2019-04-04T13:38:07.180Z,1.80
2019-04-04T13:40:45.468Z,1.82
2019-04-04T13:43:06.092Z,1.57
2019-04-04T13:45:34.522Z,1.70
2019-04-04T13:48:03.728Z,1.70
2019-04-04T13:50:32.174Z,1.60
2019-04-04T13:53:00.616Z,1.40
2019-04-04T13:55:29.156Z,1.55
2019-04-04T13:57:57.599Z,2.12
2019-04-04T14:00:26.037Z,2.05
2019-04-04T14:02:54.502Z,2.20
2019-04-04T14:05:22.950Z,1.60
2019-04-04T14:07:51.400Z,2.00
2019-04-04T14:10:19.869Z,1.80
2019-04-04T14:12:48.312Z,1.92
2019-04-04T14:15:16.823Z,1.80
2019-04-04T14:17:45.306Z,1.80
2019-04-04T14:20:14.085Z,1.77
2019-04-04T14:22:42.605Z,2.62
2019-04-04T14:25:11.315Z,2.00
2019-04-04T14:27:39.757Z,2.77
2019-04-04T14:30:08.832Z,2.55
2019-04-04T14:32:37.381Z,2.52
2019-04-04T14:35:08.060Z,2.42
2019-04-04T14:37:36.635Z,2.22
2019-04-04T14:40:07.914Z,3.12
2019-04-04T14:42:36.355Z,2.35
2019-04-04T14:45:06.698Z,3.05
2019-04-04T14:47:35.185Z,2.87
2019-04-04T14:50:05.382Z,2.87
2019-04-04T14:52:46.051Z,3.20
2019-04-04T14:55:14.495Z,3.27
2019-04-04T14:57:42.936Z,2.90
2019-04-04T15:00:15.637Z,2.45
2019-04-04T15:02:43.527Z,2.47
2019-04-04T15:05:12.099Z,0.10
2019-04-04T15:07:40.680Z,0.72
2019-04-04T15:10:09.280Z,0.10
2019-04-04T15:12:37.722Z,0.00
2019-04-04T15:15:06.928Z,0.10
2019-04-04T15:17:35.367Z,0.00
2019-04-04T15:20:04.852Z,0.10
2019-04-04T15:22:33.340Z,0.10
2019-04-04T15:25:01.783Z,0.10
2019-04-04T15:27:30.223Z,0.00
2019-04-04T15:29:58.760Z,0.10
2019-04-04T15:32:27.671Z,0.10
2019-04-04T15:34:56.130Z,0.00
2019-04-04T15:37:24.742Z,0.00
2019-04-04T15:40:17.331Z,0.00
2019-04-04T15:42:45.792Z,0.10
2019-04-04T15:45:14.465Z,0.00
2019-04-04T15:47:42.969Z,0.10
2019-04-04T15:50:11.688Z,0.00
2019-04-04T15:52:40.145Z,0.10
2019-04-04T15:55:08.726Z,0.00
2019-04-04T15:57:37.176Z,0.00
2019-04-04T16:00:08.279Z,0.10
2019-04-04T16:02:36.787Z,0.00
2019-04-04T16:05:06.919Z,0.00
2019-04-04T16:07:35.422Z,0.10
2019-04-04T16:10:06.019Z,0.10
2019-04-04T16:12:34.560Z,0.00
2019-04-04T16:15:02.995Z,0.10
2019-04-04T16:17:31.431Z,0.10
2019-04-04T16:19:59.894Z,0.10
2019-04-04T16:22:28.332Z,0.00
2019-04-04T16:24:56.764Z,0.00
2019-04-04T16:27:25.229Z,0.10
2019-04-04T16:30:02.489Z,0.00
2019-04-04T16:32:30.945Z,0.00
2019-04-04T16:34:59.384Z,0.33
2019-04-04T16:37:27.819Z,0.10
2019-04-04T16:40:08.090Z,0.10
2019-04-04T16:42:26.443Z,0.00
2019-04-04T16:44:54.884Z,0.10
2019-04-04T16:47:23.332Z,1.27
2019-04-04T16:49:51.779Z,0.10
2019-04-04T16:52:20.288Z,0.10
2019-04-04T16:54:48.819Z,0.10
2019-04-04T16:57:17.255Z,0.82
2019-04-04T16:59:45.697Z,0.20
2019-04-04T17:02:14.164Z,0.10
2019-04-04T17:04:42.666Z,0.10
2019-04-04T17:07:11.093Z,0.00
2019-04-04T17:09:39.560Z,0.17
2019-04-04T17:12:14.739Z,0.10
2019-04-04T17:14:38.160Z,0.10
2019-04-04T17:17:06.638Z,0.00
2019-04-04T17:19:37.765Z,0.10
2019-04-04T17:22:06.270Z,0.10
2019-04-04T17:24:34.738Z,0.10
2019-04-04T17:27:03.228Z,0.10
2019-04-04T17:29:31.761Z,0.00
2019-04-04T17:32:00.679Z,0.10
2019-04-04T17:34:29.590Z,0.00
2019-04-04T17:36:58.140Z,0.00
2019-04-04T17:39:26.941Z,0.00
2019-04-04T17:41:55.657Z,0.10
2019-04-04T17:44:24.128Z,0.00
2019-04-04T17:46:52.738Z,0.25
2019-04-04T17:49:21.645Z,0.10
2019-04-04T17:51:50.412Z,0.20
2019-04-04T17:54:18.959Z,0.10
2019-04-04T17:56:47.825Z,0.10
2019-04-04T17:59:16.340Z,0.10
2019-04-04T18:01:44.804Z,0.05
2019-04-04T18:04:13.236Z,0.00
2019-04-04T18:06:41.686Z,1.12
2019-04-04T18:09:10.280Z,0.10
2019-04-04T18:11:38.711Z,0.20
2019-04-04T18:14:07.292Z,0.10
2019-04-04T18:16:46.232Z,0.10
2019-04-04T18:19:05.912Z,0.28
2019-04-04T18:21:34.340Z,0.10
2019-04-04T18:24:02.885Z,0.10
2019-04-04T18:26:31.325Z,0.10
2019-04-04T18:28:59.762Z,0.00
2019-04-04T18:31:28.295Z,0.10
2019-04-04T18:33:56.730Z,0.00
2019-04-04T18:36:25.393Z,0.10
2019-04-04T18:38:53.932Z,0.20
2019-04-04T18:41:22.382Z,0.10
2019-04-04T18:43:50.823Z,0.10
2019-04-04T18:46:19.293Z,0.10
2019-04-04T18:48:47.740Z,0.10
2019-04-04T18:51:16.239Z,0.10
2019-04-04T18:53:44.693Z,0.00
2019-04-04T18:56:13.126Z,0.10
2019-04-04T18:58:41.568Z,0.10
2019-04-04T19:01:10.176Z,0.10
2019-04-04T19:03:38.626Z,0.28
2019-04-04T19:06:07.142Z,0.10
2019-04-04T19:08:35.690Z,0.10
2019-04-04T19:11:04.544Z,0.00
2019-04-04T19:13:43.821Z,1.65
2019-04-04T19:16:03.239Z,0.10
2019-04-04T19:18:31.747Z,0.00
2019-04-04T19:21:00.180Z,0.10
2019-04-04T19:23:28.756Z,0.10
2019-04-04T19:25:57.310Z,0.00
2019-04-04T19:28:25.811Z,0.08
2019-04-04T19:30:54.429Z,0.10
2019-04-04T19:33:22.928Z,0.10
2019-04-04T19:35:51.372Z,0.10
2019-04-04T19:38:19.908Z,0.20
2019-04-04T19:40:48.353Z,0.10
2019-04-04T19:43:18.414Z,0.10
2019-04-04T19:45:47.116Z,0.10
2019-04-04T19:48:15.622Z,0.00
2019-04-04T19:50:44.066Z,0.10
2019-04-04T19:53:14.282Z,0.10
2019-04-04T19:55:42.711Z,0.00
2019-04-04T19:58:11.150Z,0.10
2019-04-04T20:00:39.622Z,0.10
2019-04-04T20:03:08.076Z,0.00
2019-04-04T20:05:36.512Z,0.10
2019-04-04T20:08:04.975Z,0.00
2019-04-04T20:10:33.403Z,0.10
2019-04-04T20:13:01.848Z,0.30
2019-04-04T20:15:30.320Z,0.10
2019-04-04T20:17:58.759Z,0.10
2019-04-04T20:20:27.211Z,0.10
2019-04-04T20:22:55.691Z,0.20
2019-04-04T20:25:24.150Z,0.10
2019-04-04T20:27:54.930Z,0.20
2019-04-04T20:30:39.124Z,0.10
2019-04-04T20:33:08.492Z,0.47
2019-04-04T20:35:37.092Z,7.05
2019-04-04T20:38:05.758Z,7.00
2019-04-04T20:40:34.276Z,7.67
2019-04-04T20:43:02.707Z,7.25
2019-04-04T20:45:31.180Z,6.78
2019-04-04T20:47:59.624Z,6.45
2019-04-04T20:50:32.572Z,6.97
2019-04-04T20:53:01.024Z,6.87
2019-04-04T20:55:29.462Z,6.67
2019-04-04T20:57:57.900Z,6.62
2019-04-04T21:00:26.360Z,6.45
2019-04-04T21:02:54.795Z,6.42
2019-04-04T21:05:23.236Z,6.00
2019-04-04T21:07:51.768Z,6.20
2019-04-04T21:10:20.204Z,6.47
2019-04-04T21:12:48.719Z,6.08
2019-04-04T21:15:17.175Z,6.55
2019-04-04T21:17:45.615Z,5.97
2019-04-04T21:20:14.322Z,6.30
2019-04-04T21:22:42.854Z,5.80
2019-04-04T21:25:11.729Z,6.33
2019-04-04T21:27:40.170Z,6.47
2019-04-04T21:30:09.147Z,6.00
2019-04-04T21:32:37.602Z,5.97
2019-04-04T21:35:09.017Z,6.42
2019-04-04T21:37:37.549Z,5.75
2019-04-04T21:40:07.990Z,5.35
2019-04-04T21:42:36.415Z,5.58
2019-04-04T21:45:06.525Z,5.90
2019-04-04T21:47:34.964Z,5.20
2019-04-04T21:50:04.055Z,5.12
2019-04-04T21:52:32.576Z,5.25
2019-04-04T21:55:01.016Z,4.90
2019-04-04T21:57:29.531Z,5.60
2019-04-04T21:59:57.998Z,5.47
2019-04-04T22:02:26.467Z,5.50
2019-04-04T22:04:55.036Z,5.37
2019-04-04T22:07:23.511Z,5.33
2019-04-04T22:09:52.087Z,5.60
2019-04-04T22:12:20.596Z,5.78
2019-04-04T22:14:49.059Z,5.22
2019-04-04T22:17:17.489Z,5.03
2019-04-04T22:19:45.925Z,4.97
2019-04-04T22:22:14.381Z,5.22
2019-04-04T22:24:42.817Z,4.95
2019-04-04T22:27:11.252Z,4.60
2019-04-04T22:29:39.775Z,4.47
2019-04-04T22:32:08.292Z,5.22
2019-04-04T22:34:36.730Z,4.62
2019-04-04T22:37:05.289Z,5.03
2019-04-04T22:39:33.720Z,5.00
2019-04-04T22:42:02.147Z,4.70
2019-04-04T22:44:35.145Z,5.20
2019-04-04T22:47:00.859Z,6.12
2019-04-04T22:49:29.312Z,7.42
2019-04-04T22:51:57.779Z,5.30
2019-04-04T22:54:26.213Z,5.35
2019-04-04T22:56:54.653Z,5.93
2019-04-04T22:59:25.317Z,5.55
2019-04-04T23:01:53.842Z,5.20
2019-04-04T23:04:22.339Z,5.33
2019-04-04T23:06:50.800Z,5.58
2019-04-04T23:09:19.236Z,6.20
2019-04-04T23:11:47.678Z,5.80
2019-04-04T23:14:16.149Z,5.35
2019-04-04T23:16:44.656Z,5.20
2019-04-04T23:19:13.093Z,5.28
2019-04-04T23:21:41.626Z,5.15
2019-04-04T23:24:12.747Z,5.65
2019-04-04T23:26:41.197Z,5.72
2019-04-04T23:29:09.744Z,5.08
2019-04-04T23:31:38.196Z,5.53
2019-04-04T23:34:06.632Z,4.87
2019-04-04T23:36:35.686Z,4.90
2019-04-04T23:39:06.343Z,5.08
2019-04-04T23:41:34.779Z,4.30
2019-04-04T23:44:03.227Z,4.42
2019-04-04T23:46:31.664Z,4.00
2019-04-04T23:49:00.100Z,4.25
2019-04-04T23:51:28.560Z,4.47
2019-04-04T23:53:56.991Z,3.92
2019-04-04T23:56:25.432Z,5.20
2019-04-04T23:58:53.892Z,4.12
